createdAt,value
2022-08-26T00:01:55.663Z,15.59
2022-08-26T00:04:24.264Z,15.48
2022-08-26T00:06:54.584Z,15.42
2022-08-26T00:09:22.612Z,15.57
2022-08-26T00:11:56.159Z,15.55
2022-08-26T00:14:31.057Z,15.61
2022-08-26T00:17:00.234Z,15.64
2022-08-26T00:19:27.697Z,15.62
2022-08-26T00:21:55.053Z,15.52
2022-08-26T00:24:23.927Z,15.49
2022-08-26T00:26:51.583Z,15.44
2022-08-26T00:29:23.366Z,15.45
2022-08-26T00:31:52.757Z,15.47
2022-08-26T00:34:27.394Z,15.45
2022-08-26T00:36:55.275Z,15.52
2022-08-26T00:39:30.346Z,15.49
2022-08-26T00:41:59.136Z,15.47
2022-08-26T00:44:27.377Z,15.54
2022-08-26T00:47:00.038Z,15.61
2022-08-26T00:49:35.954Z,15.37
2022-08-26T00:52:06.977Z,15.46
2022-08-26T00:54:47.774Z,15.38
2022-08-26T00:57:18.760Z,15.36
2022-08-26T00:59:49.023Z,15.27
2022-08-26T01:02:21.120Z,15.15
2022-08-26T01:04:55.856Z,15.30
2022-08-26T01:07:25.143Z,15.37
2022-08-26T01:09:55.042Z,15.29
2022-08-26T01:12:25.225Z,15.14
2022-08-26T01:14:54.247Z,15.09
2022-08-26T01:17:21.239Z,15.04
2022-08-26T01:19:56.226Z,15.05
2022-08-26T01:22:28.663Z,15.01
2022-08-26T01:25:01.338Z,15.04
2022-08-26T01:27:34.051Z,15.10
2022-08-26T01:30:02.316Z,15.13
2022-08-26T01:32:31.729Z,15.22
2022-08-26T01:35:00.283Z,15.13
2022-08-26T01:37:34.922Z,15.03
2022-08-26T01:40:17.034Z,15.12
2022-08-26T01:42:54.248Z,15.09
2022-08-26T01:45:25.255Z,15.09
2022-08-26T01:47:59.873Z,15.22
2022-08-26T01:50:30.683Z,15.25
2022-08-26T01:53:04.993Z,15.16
2022-08-26T01:55:35.532Z,15.13
2022-08-26T01:58:08.030Z,15.19
2022-08-26T02:00:37.143Z,15.17
2022-08-26T02:03:07.629Z,15.18
2022-08-26T02:05:36.039Z,15.10
2022-08-26T02:08:07.075Z,15.12
2022-08-26T02:10:35.439Z,15.06
2022-08-26T02:13:04.408Z,15.04
2022-08-26T02:15:31.436Z,15.02
2022-08-26T02:17:58.729Z,14.96
2022-08-26T02:20:26.901Z,15.17
2022-08-26T02:22:54.147Z,15.03
2022-08-26T02:25:31.818Z,14.90
2022-08-26T02:28:00.496Z,14.81
2022-08-26T02:30:31.499Z,14.80
2022-08-26T02:32:59.479Z,14.78
2022-08-26T02:35:32.886Z,14.71
2022-08-26T02:38:00.943Z,14.66
2022-08-26T02:40:34.269Z,14.55
2022-08-26T02:43:08.615Z,14.62
2022-08-26T02:45:37.141Z,14.65
2022-08-26T02:48:08.900Z,14.57
2022-08-26T02:50:40.912Z,14.68
2022-08-26T02:53:12.024Z,14.79
2022-08-26T02:55:43.611Z,14.69
2022-08-26T02:58:13.431Z,14.78
2022-08-26T03:00:52.622Z,14.73
2022-08-26T03:03:20.154Z,14.71
2022-08-26T03:05:52.784Z,14.68
2022-08-26T03:08:22.827Z,14.53
2022-08-26T03:10:49.824Z,14.47
2022-08-26T03:13:27.892Z,14.56
2022-08-26T03:15:54.748Z,14.64
2022-08-26T03:18:25.136Z,14.66
2022-08-26T03:20:52.296Z,14.72
2022-08-26T03:23:20.635Z,14.72
2022-08-26T03:25:50.811Z,14.59
2022-08-26T03:28:29.180Z,14.55
2022-08-26T03:31:00.699Z,14.58
2022-08-26T03:33:29.086Z,14.59
2022-08-26T03:35:56.106Z,14.53
2022-08-26T03:38:27.175Z,14.49
2022-08-26T03:40:56.332Z,14.44
2022-08-26T03:43:26.922Z,14.47
2022-08-26T03:45:54.919Z,14.55
2022-08-26T03:48:24.595Z,14.44
2022-08-26T03:50:51.655Z,14.47
2022-08-26T03:53:24.336Z,14.43
2022-08-26T03:55:53.213Z,14.47
2022-08-26T03:58:23.198Z,14.43
2022-08-26T04:00:55.756Z,14.37
2022-08-26T04:03:24.037Z,14.35
2022-08-26T04:05:56.056Z,14.47
2022-08-26T04:08:25.645Z,14.39
2022-08-26T04:10:56.921Z,14.29
2022-08-26T04:13:25.094Z,14.29
2022-08-26T04:15:56.759Z,14.33
2022-08-26T04:18:24.241Z,14.34
2022-08-26T04:20:55.408Z,14.37
2022-08-26T04:23:22.934Z,14.31
2022-08-26T04:25:56.489Z,14.27
2022-08-26T04:28:24.486Z,14.30
2022-08-26T04:30:52.794Z,14.24
2022-08-26T04:33:32.528Z,14.33
2022-08-26T04:36:05.217Z,14.34
2022-08-26T04:38:33.051Z,14.47
2022-08-26T04:41:01.688Z,14.52
2022-08-26T04:43:29.016Z,14.42
2022-08-26T04:46:00.093Z,14.43
2022-08-26T04:48:34.251Z,14.48
2022-08-26T04:51:06.243Z,14.50
2022-08-26T04:53:34.621Z,14.44
2022-08-26T04:56:03.875Z,14.54
2022-08-26T04:58:31.864Z,14.47
2022-08-26T05:01:00.363Z,14.41
2022-08-26T05:03:30.565Z,14.38
2022-08-26T05:05:58.672Z,14.40
2022-08-26T05:08:26.060Z,14.34
2022-08-26T05:10:55.003Z,14.38
2022-08-26T05:13:29.915Z,14.37
2022-08-26T05:15:59.974Z,14.34
2022-08-26T05:18:34.979Z,14.33
2022-08-26T05:21:02.567Z,14.30
2022-08-26T05:23:31.277Z,14.32
2022-08-26T05:26:00.664Z,14.28
2022-08-26T05:28:35.197Z,14.38
2022-08-26T05:31:10.528Z,14.33
2022-08-26T05:33:41.314Z,14.24
2022-08-26T05:36:12.251Z,14.26
2022-08-26T05:38:41.106Z,14.34
2022-08-26T05:41:16.891Z,14.35
2022-08-26T05:43:47.474Z,14.30
2022-08-26T05:46:18.395Z,14.17
2022-08-26T05:48:50.330Z,14.32
2022-08-26T05:51:25.851Z,15.51
2022-08-26T05:54:02.312Z,16.18
2022-08-26T05:56:31.543Z,16.52
2022-08-26T05:59:01.780Z,15.91
2022-08-26T06:01:33.738Z,15.65
2022-08-26T06:04:13.055Z,15.54
2022-08-26T06:06:40.343Z,15.74
2022-08-26T06:09:11.448Z,15.84
2022-08-26T06:11:39.137Z,15.65
2022-08-26T06:14:07.783Z,15.74
2022-08-26T06:16:40.846Z,15.67
2022-08-26T06:19:15.247Z,15.72
2022-08-26T06:21:54.112Z,15.72
2022-08-26T06:24:26.874Z,15.83
2022-08-26T06:27:02.609Z,16.08
2022-08-26T06:29:32.912Z,16.14
2022-08-26T06:32:01.167Z,16.29
2022-08-26T06:34:35.474Z,16.44
2022-08-26T06:37:08.103Z,16.65
2022-08-26T06:39:35.565Z,16.81
2022-08-26T06:42:11.817Z,16.87
2022-08-26T06:44:41.196Z,17.00
2022-08-26T06:47:08.322Z,17.10
2022-08-26T06:49:37.186Z,17.20
2022-08-26T06:52:05.564Z,17.49
2022-08-26T06:54:38.873Z,17.88
2022-08-26T06:57:10.782Z,18.27
2022-08-26T06:59:40.910Z,18.38
2022-08-26T07:02:08.392Z,18.66
2022-08-26T07:04:39.284Z,18.86
2022-08-26T07:07:15.397Z,19.11
2022-08-26T07:09:52.434Z,19.49
2022-08-26T07:12:19.681Z,19.66
2022-08-26T07:14:49.256Z,19.60
2022-08-26T07:17:19.439Z,19.94
2022-08-26T07:19:51.876Z,20.10
2022-08-26T07:22:21.250Z,20.47
2022-08-26T07:24:51.228Z,20.37
2022-08-26T07:27:27.374Z,20.64
2022-08-26T07:29:57.071Z,20.90
2022-08-26T07:32:28.413Z,21.23
2022-08-26T07:34:56.892Z,21.58
2022-08-26T07:37:30.557Z,21.75
2022-08-26T07:40:05.763Z,21.72
2022-08-26T07:42:39.827Z,21.82
2022-08-26T07:45:11.863Z,21.80
2022-08-26T07:47:38.892Z,21.91
2022-08-26T07:50:11.575Z,21.72
2022-08-26T07:52:41.319Z,21.56
2022-08-26T07:55:10.717Z,21.43
2022-08-26T07:57:42.051Z,21.29
2022-08-26T08:00:14.263Z,21.19
2022-08-26T08:02:45.568Z,21.06
2022-08-26T08:05:17.841Z,21.00
2022-08-26T08:07:53.577Z,20.80
2022-08-26T08:10:40.889Z,21.05
2022-08-26T08:13:09.975Z,21.14
2022-08-26T08:15:38.101Z,21.30
2022-08-26T08:18:15.366Z,21.69
2022-08-26T08:20:59.248Z,22.02
2022-08-26T08:23:35.698Z,22.47
2022-08-26T08:26:26.798Z,22.91
2022-08-26T08:28:58.467Z,23.28
2022-08-26T08:31:55.737Z,23.49
2022-08-26T08:34:18.349Z,23.67
2022-08-26T08:36:48.328Z,23.89
2022-08-26T08:39:21.931Z,24.16
2022-08-26T08:41:54.146Z,24.18
2022-08-26T08:47:02.676Z,24.38
2022-08-26T08:49:32.519Z,24.57
2022-08-26T08:52:11.560Z,23.64
2022-08-26T08:54:39.836Z,23.96
2022-08-26T08:57:17.360Z,24.28
2022-08-26T08:59:56.417Z,24.62
2022-08-26T09:02:30.573Z,24.84
2022-08-26T09:05:22.032Z,24.94
2022-08-26T09:08:03.065Z,24.89
2022-08-26T09:10:36.148Z,24.27
2022-08-26T09:13:06.346Z,24.60
2022-08-26T09:15:49.056Z,24.34
2022-08-26T09:18:28.305Z,24.66
2022-08-26T09:21:01.169Z,24.99
2022-08-26T09:23:53.999Z,25.09
2022-08-26T09:26:25.999Z,25.41
2022-08-26T09:28:58.546Z,25.73
2022-08-26T09:31:29.511Z,25.81
2022-08-26T09:34:17.070Z,25.88
2022-08-26T09:36:49.832Z,25.82
2022-08-26T09:39:37.541Z,25.89
2022-08-26T09:42:14.291Z,26.20
2022-08-26T09:44:57.434Z,25.87
2022-08-26T09:47:32.320Z,25.92
2022-08-26T09:50:04.934Z,26.19
2022-08-26T09:52:40.353Z,26.31
2022-08-26T09:55:22.443Z,26.40
2022-08-26T09:57:53.495Z,26.39
2022-08-26T10:00:32.197Z,26.59
2022-08-26T10:03:03.083Z,26.21
2022-08-26T10:05:36.932Z,26.10
2022-08-26T10:08:20.139Z,26.40
2022-08-26T10:10:54.267Z,26.35
2022-08-26T10:13:29.534Z,26.36
2022-08-26T10:16:03.872Z,26.57
2022-08-26T10:18:40.331Z,26.55
2022-08-26T10:21:17.852Z,25.88
2022-08-26T10:23:55.328Z,26.55
2022-08-26T10:26:38.931Z,27.08
2022-08-26T10:29:13.571Z,27.05
2022-08-26T10:31:46.631Z,26.76
2022-08-26T10:34:17.522Z,26.40
2022-08-26T10:37:14.092Z,25.83
2022-08-26T10:39:53.004Z,26.12
2022-08-26T10:42:34.532Z,25.94
2022-08-26T10:45:11.988Z,25.69
2022-08-26T10:47:50.168Z,25.60
2022-08-26T10:53:08.722Z,26.18
2022-08-26T10:55:43.859Z,26.53
2022-08-26T10:58:28.116Z,26.89
2022-08-26T11:01:10.244Z,27.18
2022-08-26T11:03:44.903Z,27.48
2022-08-26T11:06:24.465Z,27.70
2022-08-26T11:08:56.957Z,27.75
2022-08-26T11:11:47.771Z,27.93
2022-08-26T11:14:42.089Z,27.99
2022-08-26T11:18:07.154Z,27.92
2022-08-26T11:20:41.968Z,28.00
2022-08-26T11:23:38.228Z,27.89
2022-08-26T11:26:36.339Z,27.46
2022-08-26T11:29:13.002Z,27.45
2022-08-26T11:31:57.825Z,27.44
2022-08-26T11:34:56.406Z,27.49
2022-08-26T11:37:32.196Z,27.55
2022-08-26T11:40:03.037Z,27.42
2022-08-26T11:42:36.580Z,27.49
2022-08-26T11:45:18.552Z,27.61
2022-08-26T11:47:49.488Z,27.63
2022-08-26T11:50:19.604Z,27.65
2022-08-26T11:52:53.158Z,27.74
2022-08-26T11:55:23.262Z,27.88
2022-08-26T11:57:55.501Z,27.67
2022-08-26T12:00:28.184Z,27.33
2022-08-26T12:03:08.096Z,27.66
2022-08-26T12:05:38.340Z,27.69
2022-08-26T12:08:12.203Z,27.82
2022-08-26T12:10:39.767Z,27.83
2022-08-26T12:13:08.278Z,27.94
2022-08-26T12:15:35.813Z,27.81
2022-08-26T12:18:28.783Z,27.82
2022-08-26T12:20:56.224Z,27.87
2022-08-26T12:26:10.782Z,27.98
2022-08-26T12:28:50.872Z,28.10
2022-08-26T12:31:24.414Z,28.00
2022-08-26T12:33:59.011Z,28.10
2022-08-26T12:36:31.002Z,28.08
2022-08-26T12:39:10.838Z,28.09
2022-08-26T12:42:23.549Z,27.98
2022-08-26T12:44:59.546Z,28.07
2022-08-26T12:47:42.239Z,28.09
2022-08-26T12:50:25.968Z,28.12
2022-08-26T12:52:59.829Z,27.84
2022-08-26T12:55:36.171Z,27.95
2022-08-26T12:58:29.965Z,28.08
2022-08-26T13:01:19.184Z,28.01
2022-08-26T13:03:49.048Z,27.56
2022-08-26T13:06:26.663Z,27.41
2022-08-26T13:08:59.201Z,27.58
2022-08-26T13:11:30.402Z,27.69
2022-08-26T13:14:00.276Z,27.52
2022-08-26T13:16:29.847Z,27.28
2022-08-26T13:19:01.298Z,27.12
2022-08-26T13:21:37.803Z,27.18
2022-08-26T13:24:08.636Z,27.18
2022-08-26T13:26:38.689Z,27.12
2022-08-26T13:29:10.374Z,27.20
2022-08-26T13:31:45.111Z,27.22
2022-08-26T13:34:14.587Z,27.22
2022-08-26T13:36:48.825Z,27.27
2022-08-26T13:39:16.585Z,27.21
2022-08-26T13:41:44.191Z,27.29
2022-08-26T13:44:17.855Z,27.37
2022-08-26T13:46:48.194Z,27.31
2022-08-26T13:49:31.169Z,27.35
2022-08-26T13:52:01.115Z,27.29
2022-08-26T13:54:31.244Z,27.44
2022-08-26T13:56:58.676Z,27.44
2022-08-26T13:59:25.482Z,27.46
2022-08-26T14:01:53.670Z,27.53
2022-08-26T14:04:23.346Z,27.38
2022-08-26T14:06:54.764Z,27.44
2022-08-26T14:09:24.098Z,27.42
2022-08-26T14:11:55.092Z,27.29
2022-08-26T14:14:23.665Z,27.27
2022-08-26T14:16:58.634Z,27.03
2022-08-26T14:19:28.514Z,26.89
2022-08-26T14:21:56.010Z,26.85
2022-08-26T14:24:24.408Z,26.99
2022-08-26T14:26:51.233Z,27.07
2022-08-26T14:29:19.361Z,27.10
2022-08-26T14:31:47.656Z,27.02
2022-08-26T14:34:18.841Z,27.07
2022-08-26T14:36:45.667Z,27.12
2022-08-26T14:39:13.796Z,26.96
2022-08-26T14:41:45.542Z,26.70
2022-08-26T14:44:27.964Z,26.59
2022-08-26T14:46:55.717Z,26.56
2022-08-26T14:49:30.945Z,26.51
2022-08-26T14:52:01.985Z,26.57
2022-08-26T14:54:31.142Z,26.42
2022-08-26T14:57:03.266Z,26.35
2022-08-26T14:59:38.642Z,26.27
2022-08-26T15:02:07.397Z,26.25
2022-08-26T15:04:34.825Z,26.16
2022-08-26T15:07:06.390Z,26.16
2022-08-26T15:09:36.925Z,26.31
2022-08-26T15:12:10.210Z,26.29
2022-08-26T15:14:37.924Z,26.30
2022-08-26T15:17:06.147Z,26.13
2022-08-26T15:19:33.519Z,25.76
2022-08-26T15:22:09.981Z,25.39
2022-08-26T15:24:36.889Z,24.99
2022-08-26T15:27:11.605Z,24.41
2022-08-26T15:29:39.214Z,24.10
2022-08-26T15:32:08.335Z,23.76
2022-08-26T15:34:38.128Z,23.25
2022-08-26T15:37:05.489Z,22.94
2022-08-26T15:39:32.775Z,22.59
2022-08-26T15:42:01.873Z,22.30
2022-08-26T15:44:30.663Z,22.11
2022-08-26T15:46:59.189Z,21.95
2022-08-26T15:49:26.680Z,21.97
2022-08-26T15:51:56.099Z,21.80
2022-08-26T15:54:24.657Z,21.51
2022-08-26T15:56:52.555Z,21.43
2022-08-26T15:59:24.892Z,21.12
2022-08-26T16:01:54.268Z,21.20
2022-08-26T16:04:23.777Z,20.99
2022-08-26T16:06:50.925Z,20.75
2022-08-26T16:09:19.530Z,20.96
2022-08-26T16:11:47.376Z,20.83
2022-08-26T16:14:14.318Z,20.73
2022-08-26T16:16:41.767Z,20.79
2022-08-26T16:19:13.105Z,20.69
2022-08-26T16:21:41.117Z,20.68
2022-08-26T16:24:10.610Z,20.45
2022-08-26T16:26:42.498Z,20.47
2022-08-26T16:31:48.692Z,20.06
2022-08-26T16:34:18.252Z,19.90
2022-08-26T16:36:45.149Z,19.74
2022-08-26T16:39:12.460Z,19.77
2022-08-26T16:41:42.285Z,19.62
2022-08-26T16:44:18.498Z,19.56
2022-08-26T16:46:45.813Z,19.48
2022-08-26T16:49:13.197Z,19.42
2022-08-26T16:51:45.355Z,19.28
2022-08-26T16:54:13.601Z,19.21
2022-08-26T16:56:40.672Z,19.02
2022-08-26T16:59:09.302Z,19.04
2022-08-26T17:01:37.489Z,18.96
2022-08-26T17:04:04.792Z,18.84
2022-08-26T17:06:31.865Z,18.82
2022-08-26T17:09:00.544Z,18.87
2022-08-26T17:11:28.689Z,18.91
2022-08-26T17:13:59.141Z,18.89
2022-08-26T17:16:27.795Z,18.90
2022-08-26T17:18:59.347Z,18.80
2022-08-26T17:21:28.746Z,18.68
2022-08-26T17:23:57.948Z,18.48
2022-08-26T17:26:40.119Z,18.61
2022-08-26T17:29:07.208Z,18.66
2022-08-26T17:31:35.276Z,18.59
2022-08-26T17:34:06.783Z,18.42
2022-08-26T17:36:36.071Z,18.31
2022-08-26T17:39:06.225Z,18.20
2022-08-26T17:41:34.991Z,18.03
2022-08-26T17:44:03.892Z,17.86
2022-08-26T17:46:33.133Z,17.82
2022-08-26T17:49:03.532Z,17.68
2022-08-26T17:51:30.964Z,17.70
2022-08-26T17:53:59.808Z,17.68
2022-08-26T17:56:28.984Z,17.56
2022-08-26T17:59:04.278Z,17.62
2022-08-26T18:01:32.056Z,17.32
2022-08-26T18:04:06.136Z,17.44
2022-08-26T18:06:34.307Z,17.45
2022-08-26T18:09:03.462Z,17.41
2022-08-26T18:11:38.916Z,17.27
2022-08-26T18:14:07.802Z,17.33
2022-08-26T18:16:36.657Z,17.31
2022-08-26T18:19:05.788Z,17.18
2022-08-26T18:21:34.482Z,17.33
2022-08-26T18:24:02.176Z,17.27
2022-08-26T18:26:34.040Z,17.15
2022-08-26T18:29:01.830Z,16.97
2022-08-26T18:31:31.936Z,16.98
2022-08-26T18:34:01.078Z,16.87
2022-08-26T18:36:34.458Z,16.66
2022-08-26T18:39:05.574Z,16.80
2022-08-26T18:41:46.143Z,16.98
2022-08-26T18:44:15.730Z,16.98
2022-08-26T18:46:46.546Z,17.07
2022-08-26T18:49:16.451Z,17.11
2022-08-26T18:51:46.637Z,17.09
2022-08-26T18:54:14.204Z,17.02
2022-08-26T18:56:43.255Z,16.95
2022-08-26T18:59:16.377Z,17.11
2022-08-26T19:01:46.047Z,17.09
2022-08-26T19:04:20.901Z,17.21
2022-08-26T19:06:49.836Z,17.10
2022-08-26T19:09:19.677Z,17.07
2022-08-26T19:11:50.093Z,17.00
2022-08-26T19:14:21.414Z,16.89
2022-08-26T19:16:51.766Z,16.75
2022-08-26T19:19:24.052Z,16.83
2022-08-26T19:21:52.632Z,16.88
2022-08-26T19:24:29.039Z,16.82
2022-08-26T19:27:00.139Z,16.79
2022-08-26T19:29:31.892Z,16.76
2022-08-26T19:32:02.552Z,16.60
2022-08-26T19:34:30.282Z,16.60
2022-08-26T19:36:57.570Z,16.58
2022-08-26T19:39:27.661Z,16.33
2022-08-26T19:41:55.314Z,16.40
2022-08-26T19:44:23.291Z,16.25
2022-08-26T19:46:52.380Z,16.19
2022-08-26T19:49:24.391Z,16.29
2022-08-26T19:51:57.459Z,16.31
2022-08-26T19:54:24.993Z,16.23
2022-08-26T19:56:58.991Z,16.18
2022-08-26T19:59:26.228Z,16.12
2022-08-26T20:02:01.102Z,16.32
2022-08-26T20:04:37.357Z,16.28
2022-08-26T20:07:14.230Z,16.30
2022-08-26T20:09:45.838Z,16.33
2022-08-26T20:12:17.342Z,16.25
2022-08-26T20:14:45.399Z,16.28
2022-08-26T20:17:12.445Z,16.21
2022-08-26T20:19:41.257Z,16.26
2022-08-26T20:22:15.157Z,16.16
2022-08-26T20:24:42.300Z,16.08
2022-08-26T20:27:12.473Z,16.16
2022-08-26T20:29:45.614Z,16.27
2022-08-26T20:32:16.672Z,16.39
2022-08-26T20:34:45.785Z,16.32
2022-08-26T20:37:16.194Z,16.18
2022-08-26T20:39:50.936Z,16.25
2022-08-26T20:42:20.310Z,16.19
2022-08-26T20:44:54.410Z,15.91
2022-08-26T20:47:22.298Z,15.94
2022-08-26T20:49:54.339Z,15.88
2022-08-26T20:52:27.318Z,15.83
2022-08-26T20:54:57.102Z,15.77
2022-08-26T20:57:24.068Z,15.68
2022-08-26T20:59:52.047Z,15.78
2022-08-26T21:02:18.851Z,15.80
2022-08-26T21:04:46.264Z,15.97
2022-08-26T21:07:27.479Z,16.00
2022-08-26T21:09:56.797Z,15.85
2022-08-26T21:12:27.178Z,15.74
2022-08-26T21:14:56.095Z,15.64
2022-08-26T21:17:23.423Z,15.73
2022-08-26T21:19:51.533Z,15.66
2022-08-26T21:22:20.099Z,15.80
2022-08-26T21:24:51.061Z,15.80
2022-08-26T21:27:21.544Z,15.71
2022-08-26T21:30:03.516Z,15.65
2022-08-26T21:32:35.441Z,15.42
2022-08-26T21:35:02.578Z,15.34
2022-08-26T21:37:30.976Z,15.32
2022-08-26T21:40:00.101Z,15.23
2022-08-26T21:42:27.313Z,15.14
2022-08-26T21:44:55.119Z,15.32
2022-08-26T21:47:22.871Z,15.29
2022-08-26T21:49:51.134Z,15.40
2022-08-26T21:52:20.900Z,15.51
2022-08-26T21:54:49.946Z,15.66
2022-08-26T21:57:21.559Z,15.73
2022-08-26T21:59:55.204Z,15.75
2022-08-26T22:02:22.948Z,15.69
2022-08-26T22:04:50.490Z,15.63
2022-08-26T22:07:18.654Z,15.69
2022-08-26T22:09:52.472Z,15.69
2022-08-26T22:12:21.557Z,15.53
2022-08-26T22:14:54.738Z,15.64
2022-08-26T22:17:23.009Z,15.69
2022-08-26T22:19:50.206Z,15.67
2022-08-26T22:22:20.871Z,15.70
2022-08-26T22:24:52.658Z,15.78
2022-08-26T22:27:19.904Z,15.75
2022-08-26T22:29:46.837Z,15.71
2022-08-26T22:32:14.054Z,15.67
2022-08-26T22:34:42.279Z,15.78
2022-08-26T22:37:09.472Z,15.69
2022-08-26T22:39:45.476Z,15.75
2022-08-26T22:42:15.349Z,15.71
2022-08-26T22:44:45.934Z,15.76
2022-08-26T22:47:13.107Z,15.48
2022-08-26T22:49:44.650Z,15.49
2022-08-26T22:52:14.762Z,15.65
2022-08-26T22:54:44.169Z,15.67
2022-08-26T22:57:11.419Z,15.51
2022-08-26T22:59:56.348Z,15.49
2022-08-26T23:02:24.538Z,15.52
2022-08-26T23:04:53.065Z,15.29
2022-08-26T23:09:59.103Z,14.98
2022-08-26T23:12:29.364Z,15.03
2022-08-26T23:14:57.818Z,15.10
2022-08-26T23:17:26.281Z,14.88
2022-08-26T23:19:53.876Z,15.04
2022-08-26T23:22:23.456Z,15.05
2022-08-26T23:24:51.186Z,14.98
2022-08-26T23:27:19.776Z,15.00
2022-08-26T23:29:46.937Z,14.72
2022-08-26T23:32:16.311Z,14.73
2022-08-26T23:34:43.784Z,14.75
2022-08-26T23:37:14.243Z,14.61
2022-08-26T23:39:44.443Z,14.79
2022-08-26T23:42:13.044Z,14.87
2022-08-26T23:44:40.093Z,14.79
2022-08-26T23:47:07.759Z,14.87
2022-08-26T23:49:41.006Z,14.98
2022-08-26T23:52:08.661Z,14.84
2022-08-26T23:54:38.597Z,14.76
2022-08-26T23:57:09.292Z,14.83
2022-08-26T23:59:44.107Z,14.79
